Time;durP1;ratioP1;P1;durP2;ratioP2;P2;SDS_P1;SDS_P2;PMS_P1;PMS_P2;Temp;Humidity;BMP_temperature;BMP_pressure;BME280_temperature;BME280_humidity;BME280_pressure;Samples;Min_cycle;Max_cycle;Signal;HPM_P1;HPM_P2
2020/12/26 00:01:31;;;;;;;12.93;4.67;;;4.20;88.80;;;;;;5018490;28;20451;-84
2020/12/26 00:03:57;;;;;;;9.57;4.53;;;4.30;88.60;;;;;;5001275;28;20068;-84
2020/12/26 00:06:23;;;;;;;10.77;4.67;;;4.30;88.40;;;;;;5017936;28;20036;-84
2020/12/26 00:08:50;;;;;;;15.03;4.73;;;4.40;87.80;;;;;;5018797;28;20272;-84
2020/12/26 00:11:17;;;;;;;10.30;4.80;;;4.40;88.10;;;;;;5018870;28;20052;-85
2020/12/26 00:13:51;;;;;;;9.20;4.13;;;4.40;87.70;;;;;;5018532;28;20439;-85
2020/12/26 00:16:18;;;;;;;9.53;4.23;;;4.30;88.00;;;;;;5035791;28;20033;-86
2020/12/26 00:18:44;;;;;;;11.33;4.30;;;4.30;88.00;;;;;;5038911;23;20041;-80
2020/12/26 00:21:12;;;;;;;9.33;3.90;;;4.40;88.00;;;;;;5033282;28;20022;-81
2020/12/26 00:23:38;;;;;;;7.43;4.00;;;4.40;87.80;;;;;;5034614;28;20025;-80
2020/12/26 00:26:04;;;;;;;11.07;4.37;;;4.40;88.00;;;;;;5034580;28;20291;-81
2020/12/26 00:28:30;;;;;;;10.07;4.53;;;4.30;88.00;;;;;;5034588;28;20040;-80
2020/12/26 00:30:56;;;;;;;10.40;4.50;;;4.30;88.30;;;;;;5034226;28;20025;-81
2020/12/26 00:33:22;;;;;;;12.20;4.70;;;4.30;88.40;;;;;;5033978;28;20039;-81
2020/12/26 00:35:48;;;;;;;12.30;4.73;;;4.40;88.20;;;;;;5016403;28;20104;-80
2020/12/26 00:38:14;;;;;;;11.43;4.40;;;4.40;87.90;;;;;;5016423;28;20021;-79
2020/12/26 00:40:39;;;;;;;11.10;4.30;;;4.40;88.00;;;;;;5015565;28;20030;-82
2020/12/26 00:43:05;;;;;;;15.80;5.17;;;4.40;88.10;;;;;;5034089;28;20029;-82
2020/12/26 00:45:30;;;;;;;16.37;6.00;;;4.40;88.20;;;;;;5033867;28;20100;-79
2020/12/26 00:47:56;;;;;;;10.50;4.60;;;4.30;88.30;;;;;;5016217;28;20948;-82
2020/12/26 00:50:22;;;;;;;8.43;4.47;;;4.40;88.80;;;;;;5033208;28;20026;-81
2020/12/26 00:52:47;;;;;;;10.30;5.33;;;4.40;87.70;;;;;;5033833;28;20025;-82
2020/12/26 00:55:13;;;;;;;8.60;4.23;;;4.40;88.00;;;;;;5015955;28;20501;-81
2020/12/26 00:57:42;;;;;;;11.13;4.80;;;4.30;87.80;;;;;;5033698;28;20026;-81
2020/12/26 01:00:07;;;;;;;10.70;5.03;;;4.30;88.10;;;;;;5033580;28;20049;-82
2020/12/26 01:02:33;;;;;;;10.53;4.90;;;4.30;88.20;;;;;;5033408;28;20034;-82
2020/12/26 01:04:58;;;;;;;8.37;4.40;;;4.30;87.90;;;;;;5033421;28;20021;-81
2020/12/26 01:07:24;;;;;;;11.13;4.90;;;4.30;87.80;;;;;;5033917;28;20044;-79
2020/12/26 01:09:50;;;;;;;9.90;4.50;;;4.30;88.00;;;;;;5015538;28;20025;-82
2020/12/26 01:12:15;;;;;;;12.60;4.87;;;4.30;87.60;;;;;;5033942;28;20470;-82
2020/12/26 01:14:44;;;;;;;11.20;5.10;;;4.30;87.60;;;;;;5033537;28;20033;-79
2020/12/26 01:17:13;;;;;;;11.77;5.07;;;4.40;87.50;;;;;;5033402;28;20397;-81
2020/12/26 01:19:39;;;;;;;10.97;4.53;;;4.40;87.60;;;;;;5032991;28;20046;-80
2020/12/26 01:22:05;;;;;;;11.77;4.97;;;4.40;87.70;;;;;;5033865;28;20083;-80
2020/12/26 01:24:30;;;;;;;10.53;4.87;;;4.40;87.60;;;;;;5033393;28;20108;-80
2020/12/26 01:26:56;;;;;;;13.23;5.17;;;4.30;87.50;;;;;;5034340;28;20026;-81
2020/12/26 01:29:21;;;;;;;10.00;4.80;;;4.30;87.50;;;;;;5016667;28;20032;-81
2020/12/26 01:31:51;;;;;;;8.80;4.63;;;4.30;87.80;;;;;;5034787;28;20037;-82
2020/12/26 01:34:18;;;;;;;11.90;5.07;;;4.30;87.90;;;;;;5036883;28;20038;-82
2020/12/26 01:36:47;;;;;;;11.27;4.73;;;4.30;87.90;;;;;;5021364;28;20406;-82
2020/12/26 01:39:12;;;;;;;12.45;4.88;;;4.30;87.90;;;;;;5020415;28;20034;-81
2020/12/26 01:41:41;;;;;;;9.50;4.43;;;4.30;87.40;;;;;;5039029;28;20029;-81
2020/12/26 01:44:06;;;;;;;9.60;4.80;;;4.30;87.70;;;;;;5038676;28;20036;-82
2020/12/26 01:46:32;;;;;;;15.00;4.67;;;4.30;87.50;;;;;;5039072;28;20029;-82
2020/12/26 01:49:01;;;;;;;10.73;5.20;;;4.30;87.20;;;;;;5037542;28;20426;-81
2020/12/26 01:51:31;;;;;;;9.70;5.10;;;4.30;87.60;;;;;;5019748;28;20406;-81
2020/12/26 01:53:57;;;;;;;11.33;4.57;;;4.30;87.70;;;;;;5037579;28;20026;-82
2020/12/26 01:56:24;;;;;;;12.23;4.80;;;4.20;87.90;;;;;;5039138;28;20022;-81
2020/12/26 01:58:50;;;;;;;10.03;4.90;;;4.30;87.70;;;;;;5019310;28;20079;-81
2020/12/26 02:01:15;;;;;;;9.00;4.67;;;4.30;88.30;;;;;;5019726;28;20025;-81
2020/12/26 02:03:41;;;;;;;9.13;4.40;;;4.40;87.20;;;;;;5037771;28;20029;-82
2020/12/26 02:06:07;;;;;;;12.73;5.10;;;4.40;87.20;;;;;;5037687;28;20367;-81
2020/12/26 02:08:35;;;;;;;13.57;5.07;;;4.30;87.30;;;;;;5037589;28;20032;-82
2020/12/26 02:11:04;;;;;;;14.03;5.57;;;4.30;87.10;;;;;;5036622;28;20029;-81
2020/12/26 02:13:30;;;;;;;10.38;4.55;;;4.30;87.20;;;;;;5037285;28;20049;-81
2020/12/26 02:16:04;;;;;;;11.13;4.93;;;4.20;87.50;;;;;;5037341;28;20079;-81
2020/12/26 02:18:31;;;;;;;10.33;4.93;;;4.30;87.20;;;;;;5019064;28;20079;-81
2020/12/26 02:20:57;;;;;;;8.70;4.90;;;4.30;87.50;;;;;;5036646;28;20030;-81
2020/12/26 02:23:25;;;;;;;9.97;4.80;;;4.20;87.40;;;;;;5019801;28;20489;-82
2020/12/26 02:25:51;;;;;;;12.17;5.43;;;4.30;87.40;;;;;;5036943;28;20454;-81
2020/12/26 02:28:16;;;;;;;9.50;4.60;;;4.20;87.40;;;;;;5038482;28;20028;-82
2020/12/26 02:30:42;;;;;;;10.27;5.03;;;4.20;87.30;;;;;;5019054;28;20045;-81
2020/12/26 02:33:08;;;;;;;9.93;5.07;;;4.20;87.10;;;;;;5019392;28;20108;-81
2020/12/26 02:35:33;;;;;;;8.10;4.10;;;4.30;86.80;;;;;;5036891;28;20030;-81
2020/12/26 02:37:59;;;;;;;10.07;4.33;;;4.20;86.60;;;;;;5036807;28;20277;-81
2020/12/26 02:40:24;;;;;;;7.20;3.97;;;4.30;86.80;;;;;;5036234;28;20017;-81
2020/12/26 02:42:50;;;;;;;12.73;4.67;;;4.30;86.70;;;;;;5036322;28;20088;-81
2020/12/26 02:45:16;;;;;;;7.83;4.20;;;4.30;86.50;;;;;;5036692;28;20053;-82
2020/12/26 02:47:41;;;;;;;10.07;4.60;;;4.30;86.50;;;;;;5018764;28;20056;-81
2020/12/26 02:50:07;;;;;;;14.43;5.03;;;4.30;86.30;;;;;;5018502;28;20030;-81
2020/12/26 02:52:32;;;;;;;12.90;5.00;;;4.30;86.40;;;;;;5036614;28;20036;-82
2020/12/26 02:54:58;;;;;;;10.70;5.20;;;4.30;86.80;;;;;;5036934;28;20387;-81
2020/12/26 02:57:24;;;;;;;16.40;5.40;;;4.30;86.90;;;;;;5018373;28;20113;-81
2020/12/26 02:59:49;;;;;;;12.27;5.57;;;4.30;87.30;;;;;;5018096;28;20470;-81
2020/12/26 03:02:15;;;;;;;11.67;5.30;;;4.30;87.10;;;;;;5036416;28;20026;-81
2020/12/26 03:04:40;;;;;;;12.87;5.53;;;4.30;86.70;;;;;;5036554;28;20029;-81
2020/12/26 03:07:06;;;;;;;15.23;5.20;;;4.30;87.00;;;;;;5036518;28;20017;-82
2020/12/26 03:09:31;;;;;;;12.90;6.00;;;4.30;87.20;;;;;;5035475;28;20053;-82
2020/12/26 03:11:57;;;;;;;14.53;6.53;;;4.30;87.50;;;;;;5018543;28;20106;-81
2020/12/26 03:14:22;;;;;;;11.23;6.20;;;4.30;87.80;;;;;;5036242;28;20033;-82
2020/12/26 03:16:48;;;;;;;10.67;5.43;;;4.30;88.20;;;;;;5035856;28;20029;-81
2020/12/26 03:19:14;;;;;;;13.83;6.17;;;4.30;87.90;;;;;;5035877;28;20033;-82
2020/12/26 03:21:39;;;;;;;10.73;5.97;;;4.30;88.10;;;;;;5034959;28;20064;-81
2020/12/26 03:24:05;;;;;;;10.20;5.50;;;4.30;87.70;;;;;;5034764;28;20056;-81
2020/12/26 03:26:31;;;;;;;13.23;5.47;;;4.30;87.70;;;;;;5036012;28;20731;-82
2020/12/26 03:28:56;;;;;;;11.70;5.67;;;4.30;87.60;;;;;;5035527;28;20045;-81
2020/12/26 03:31:22;;;;;;;16.33;6.13;;;4.30;87.50;;;;;;5035967;28;20095;-81
2020/12/26 03:33:47;;;;;;;14.67;5.43;;;4.40;87.50;;;;;;5035971;28;20068;-81
2020/12/26 03:36:13;;;;;;;11.43;5.47;;;4.40;87.40;;;;;;5035760;28;20406;-81
2020/12/26 03:38:38;;;;;;;11.97;5.30;;;4.30;87.70;;;;;;5035839;28;20025;-81
2020/12/26 03:41:04;;;;;;;12.37;5.40;;;4.40;87.10;;;;;;5035309;28;20083;-81
2020/12/26 03:43:30;;;;;;;10.57;4.77;;;4.40;87.30;;;;;;5017986;28;20068;-81
2020/12/26 03:45:56;;;;;;;14.93;5.50;;;4.40;87.20;;;;;;5035456;28;20018;-81
2020/12/26 03:48:21;;;;;;;11.70;5.30;;;4.30;87.00;;;;;;5017596;28;20555;-81
2020/12/26 03:50:47;;;;;;;10.37;5.30;;;4.30;86.80;;;;;;5034908;28;20025;-82
2020/12/26 03:53:12;;;;;;;11.47;5.20;;;4.40;87.10;;;;;;5034966;28;20406;-81
2020/12/26 03:55:40;;;;;;;12.23;5.83;;;4.40;86.90;;;;;;5017660;28;20030;-81
2020/12/26 03:58:05;;;;;;;10.03;5.63;;;4.40;86.70;;;;;;5034855;28;20088;-82
2020/12/26 04:00:31;;;;;;;12.33;5.93;;;4.40;86.80;;;;;;5034912;28;20474;-81
2020/12/26 04:02:56;;;;;;;10.57;5.97;;;4.30;87.10;;;;;;5035433;28;20101;-81
2020/12/26 04:05:22;;;;;;;10.53;6.00;;;4.20;87.60;;;;;;5034881;28;20470;-81
2020/12/26 04:07:48;;;;;;;15.07;6.70;;;4.30;87.70;;;;;;5035097;28;20025;-82
2020/12/26 04:10:13;;;;;;;13.60;6.63;;;4.30;87.40;;;;;;5034543;28;20028;-81
2020/12/26 04:12:39;;;;;;;11.20;6.57;;;4.30;87.70;;;;;;5035092;28;20026;-81
2020/12/26 04:15:04;;;;;;;17.57;7.50;;;4.30;87.70;;;;;;5016952;28;20053;-81
2020/12/26 04:17:33;;;;;;;15.57;6.70;;;4.30;87.80;;;;;;5034955;28;20030;-81
2020/12/26 04:19:58;;;;;;;12.57;6.90;;;4.30;87.90;;;;;;5016234;28;20125;-82
2020/12/26 04:22:24;;;;;;;14.37;7.33;;;4.20;88.50;;;;;;5035044;28;20506;-81
2020/12/26 04:24:49;;;;;;;12.53;6.90;;;4.20;88.80;;;;;;5034689;28;20036;-82
2020/12/26 04:27:15;;;;;;;14.33;7.07;;;4.20;89.00;;;;;;5034371;28;20032;-81
2020/12/26 04:29:42;;;;;;;12.07;6.77;;;4.30;89.10;;;;;;5034414;28;20481;-81
2020/12/26 04:32:07;;;;;;;12.17;6.63;;;4.30;89.40;;;;;;5034781;28;20033;-81
2020/12/26 04:34:33;;;;;;;15.93;6.73;;;4.20;89.50;;;;;;5034608;28;20021;-81
2020/12/26 04:36:59;;;;;;;11.30;6.20;;;4.30;89.20;;;;;;5034037;28;20120;-81
2020/12/26 04:39:24;;;;;;;13.70;7.23;;;4.30;89.50;;;;;;5034174;28;20104;-81
2020/12/26 04:41:50;;;;;;;13.40;6.40;;;4.30;89.60;;;;;;5034343;28;20056;-81
2020/12/26 04:44:16;;;;;;;13.30;6.53;;;4.20;90.10;;;;;;5016345;28;20079;-81
2020/12/26 04:46:43;;;;;;;13.30;6.13;;;4.20;90.30;;;;;;5016397;28;20017;-81
2020/12/26 04:49:10;;;;;;;10.97;5.93;;;4.30;90.00;;;;;;5015507;28;20025;-82
2020/12/26 04:51:38;;;;;;;16.33;6.50;;;4.30;89.90;;;;;;5034018;28;20030;-82
2020/12/26 04:54:08;;;;;;;12.93;6.03;;;4.30;90.00;;;;;;5016792;28;20028;-82
2020/12/26 04:56:43;;;;;;;12.13;6.33;;;4.30;89.30;;;;;;5034240;28;20026;-81
2020/12/26 04:59:10;;;;;;;13.37;6.40;;;4.40;89.60;;;;;;5033762;28;20030;-81
2020/12/26 05:01:37;;;;;;;12.60;6.00;;;4.40;89.50;;;;;;5034209;28;20033;-81
2020/12/26 05:04:04;;;;;;;12.73;5.73;;;4.40;89.50;;;;;;5033959;28;20025;-81
2020/12/26 05:06:31;;;;;;;11.10;6.50;;;4.40;89.40;;;;;;5033858;28;20075;-80
2020/12/26 05:08:57;;;;;;;25.10;11.77;;;4.40;89.90;;;;;;5015017;28;20052;-81
2020/12/26 05:11:23;;;;;;;15.63;8.53;;;4.40;90.10;;;;;;5034060;28;20022;-81
2020/12/26 05:13:48;;;;;;;13.27;7.23;;;4.40;90.20;;;;;;5016057;28;20029;-81
2020/12/26 05:16:14;;;;;;;14.30;7.53;;;4.40;90.30;;;;;;5016165;28;20032;-81
2020/12/26 05:18:39;;;;;;;14.97;7.70;;;4.50;90.30;;;;;;5016137;28;20060;-82
2020/12/26 05:21:06;;;;;;;16.80;7.63;;;4.50;90.30;;;;;;5033415;28;20033;-81
2020/12/26 05:23:35;;;;;;;13.90;7.50;;;4.50;90.30;;;;;;5033852;28;20037;-82
2020/12/26 05:26:01;;;;;;;13.63;7.40;;;4.60;90.30;;;;;;5033636;28;20025;-81
2020/12/26 05:28:31;;;;;;;13.17;6.83;;;4.60;90.20;;;;;;5016109;28;20418;-81
2020/12/26 05:30:57;;;;;;;13.50;7.17;;;4.60;90.20;;;;;;5033431;28;20032;-82
2020/12/26 05:33:28;;;;;;;11.40;6.63;;;4.60;90.10;;;;;;5016425;28;20029;-81
2020/12/26 05:36:03;;;;;;;13.93;6.60;;;4.50;90.10;;;;;;5035274;28;20060;-82
2020/12/26 05:38:29;;;;;;;9.97;6.00;;;4.60;90.00;;;;;;5017435;28;20083;-81
2020/12/26 05:40:57;;;;;;;11.50;6.43;;;4.60;89.90;;;;;;5017476;28;20394;-82
2020/12/26 05:43:25;;;;;;;9.00;5.50;;;4.60;90.00;;;;;;5035119;28;20018;-81
2020/12/26 05:45:51;;;;;;;11.17;6.07;;;4.60;89.80;;;;;;5017607;28;20540;-81
2020/12/26 05:48:19;;;;;;;10.50;6.30;;;4.50;89.70;;;;;;5018147;28;20014;-82
2020/12/26 05:50:45;;;;;;;11.83;6.20;;;4.50;89.50;;;;;;5035613;28;20029;-81
2020/12/26 05:53:13;;;;;;;13.83;7.17;;;4.50;89.40;;;;;;5035451;28;20028;-82
2020/12/26 05:55:43;;;;;;;14.63;7.00;;;4.50;89.80;;;;;;5035845;28;20033;-82
2020/12/26 05:58:10;;;;;;;11.80;7.00;;;4.50;89.70;;;;;;5016944;28;20049;-82
2020/12/26 06:00:41;;;;;;;14.00;7.87;;;4.50;89.60;;;;;;5017374;28;20025;-82
2020/12/26 06:03:25;;;;;;;17.33;7.50;;;4.40;89.80;;;;;;5017485;28;20056;-82
2020/12/26 06:05:58;;;;;;;16.63;7.83;;;4.40;90.00;;;;;;5035115;28;20559;-81
2020/12/26 06:08:25;;;;;;;15.80;8.73;;;4.40;89.70;;;;;;5035555;28;20026;-81
2020/12/26 06:11:02;;;;;;;16.10;8.40;;;4.40;89.90;;;;;;5016895;28;20029;-81
2020/12/26 06:13:33;;;;;;;14.27;8.33;;;4.40;89.90;;;;;;5017434;28;20051;-82
2020/12/26 06:16:24;;;;;;;16.13;9.37;;;4.40;90.00;;;;;;5035902;28;20079;-82
2020/12/26 06:18:55;;;;;;;16.10;9.43;;;4.40;90.00;;;;;;5041421;23;20041;31
2020/12/26 06:21:22;;;;;;;15.77;9.63;;;4.40;89.70;;;;;;5013808;28;20054;-85
2020/12/26 06:23:50;;;;;;;16.90;9.80;;;4.30;89.80;;;;;;5015570;28;20531;-85
2020/12/26 06:26:17;;;;;;;16.57;9.70;;;4.30;90.00;;;;;;5015859;28;20022;-85
2020/12/26 06:28:44;;;;;;;19.53;10.37;;;4.30;90.00;;;;;;5014396;28;20021;-85
2020/12/26 06:31:11;;;;;;;19.83;10.30;;;4.30;89.90;;;;;;5013617;28;20440;-85
2020/12/26 06:33:50;;;;;;;17.87;10.40;;;4.30;89.80;;;;;;5014161;28;20033;-85
2020/12/26 06:36:18;;;;;;;20.98;10.77;;;4.30;89.60;;;;;;5014605;28;20433;-85
2020/12/26 06:38:43;;;;;;;15.20;10.03;;;4.20;89.70;;;;;;5014643;28;20113;-85
2020/12/26 06:41:17;;;;;;;18.97;10.70;;;4.10;89.70;;;;;;5015599;28;20109;-85
2020/12/26 06:43:46;;;;;;;19.47;10.57;;;4.20;89.80;;;;;;5015245;28;20405;-85
2020/12/26 06:46:14;;;;;;;18.40;10.53;;;4.20;90.20;;;;;;5016691;28;20045;-86
2020/12/26 06:48:44;;;;;;;18.00;11.63;;;4.20;89.80;;;;;;5014895;28;20026;-85
2020/12/26 06:51:29;;;;;;;19.70;11.27;;;4.20;90.00;;;;;;5014946;28;20293;-85
2020/12/26 06:54:04;;;;;;;19.83;12.20;;;4.10;89.80;;;;;;5015401;28;20060;-85
2020/12/26 06:56:36;;;;;;;18.27;11.00;;;4.10;89.80;;;;;;5015654;28;20077;-85
2020/12/26 06:59:06;;;;;;;20.17;11.53;;;4.10;89.70;;;;;;5018324;28;20552;-84
2020/12/26 07:01:42;;;;;;;17.57;10.63;;;4.10;89.80;;;;;;5036620;28;20018;-85
2020/12/26 07:04:13;;;;;;;19.40;11.70;;;4.10;89.90;;;;;;5037332;28;20338;-85
2020/12/26 07:06:43;;;;;;;19.80;11.80;;;4.10;89.90;;;;;;5020640;28;20084;-85
2020/12/26 07:09:11;;;;;;;20.20;12.03;;;4.00;89.80;;;;;;5023013;28;20101;-85
2020/12/26 07:11:51;;;;;;;18.23;11.43;;;4.00;89.80;;;;;;5035823;28;20076;-85
2020/12/26 07:14:38;;;;;;;21.13;11.73;;;4.00;90.00;;;;;;5037554;28;20030;-84
2020/12/26 07:17:13;;;;;;;22.73;12.37;;;4.00;90.00;;;;;;5035457;28;20053;-85
2020/12/26 07:19:46;;;;;;;19.07;12.30;;;4.00;90.00;;;;;;5021979;28;20391;-85
2020/12/26 07:22:19;;;;;;;18.33;12.00;;;4.00;90.10;;;;;;5067899;28;20037;-85
2020/12/26 07:24:49;;;;;;;21.63;13.10;;;4.00;90.00;;;;;;5033333;28;20021;-86
2020/12/26 07:27:31;;;;;;;;;;;4.00;90.40;;;;;;5033696;28;20079;-84
2020/12/26 07:30:05;;;;;;;19.63;12.93;;;4.00;90.20;;;;;;5065460;28;19905;-85
2020/12/26 07:32:38;;;;;;;24.23;14.00;;;4.00;90.10;;;;;;5031810;28;20120;-85
2020/12/26 07:35:05;;;;;;;22.57;12.77;;;4.00;90.20;;;;;;5032818;28;20029;-85
2020/12/26 07:37:32;;;;;;;21.67;13.37;;;3.90;90.30;;;;;;5033920;28;20026;-85
2020/12/26 07:39:58;;;;;;;22.40;13.70;;;3.90;90.50;;;;;;5033192;28;20026;-85
2020/12/26 07:42:28;;;;;;;25.33;14.47;;;3.90;90.60;;;;;;5065841;28;20036;-85
2020/12/26 07:45:11;;;;;;;22.63;13.97;;;3.90;90.30;;;;;;5032227;28;20033;-85
2020/12/26 07:47:40;;;;;;;20.83;12.97;;;3.90;90.30;;;;;;5033112;28;20025;-85
2020/12/26 07:50:06;;;;;;;19.73;13.32;;;3.90;90.40;;;;;;5032236;28;20359;-85
2020/12/26 07:52:32;;;;;;;22.20;12.93;;;3.90;90.40;;;;;;5033769;28;20155;-85
2020/12/26 07:54:59;;;;;;;22.30;12.67;;;3.90;90.40;;;;;;5033695;28;20084;-85
2020/12/26 07:57:28;;;;;;;23.70;13.27;;;3.80;90.60;;;;;;5042207;28;20026;-85
2020/12/26 07:59:54;;;;;;;20.80;12.32;;;3.90;90.40;;;;;;5037626;28;20025;-85
2020/12/26 08:02:20;;;;;;;21.13;13.27;;;3.90;90.30;;;;;;5038205;28;20084;-85
2020/12/26 08:04:46;;;;;;;20.33;12.23;;;3.80;90.40;;;;;;5038109;28;20422;-85
2020/12/26 08:07:14;;;;;;;23.40;13.60;;;3.90;90.40;;;;;;5038118;28;20030;-85
2020/12/26 08:09:51;;;;;;;20.10;12.43;;;3.90;90.50;;;;;;5036915;28;20032;-83
2020/12/26 08:12:17;;;;;;;21.47;12.63;;;4.00;90.40;;;;;;5037785;28;20032;-85
2020/12/26 08:14:43;;;;;;;20.17;12.73;;;3.90;90.30;;;;;;5038761;28;20049;-85
2020/12/26 08:17:10;;;;;;;21.63;11.93;;;3.90;90.30;;;;;;5036214;28;20124;-85
2020/12/26 08:19:36;;;;;;;22.53;12.10;;;3.90;90.20;;;;;;5031753;28;20116;-85
2020/12/26 08:22:02;;;;;;;22.40;11.60;;;3.90;90.40;;;;;;5031751;28;20477;-86
2020/12/26 08:24:28;;;;;;;21.40;11.90;;;3.90;90.40;;;;;;5032882;28;20029;-85
2020/12/26 08:26:55;;;;;;;22.00;11.80;;;3.90;90.50;;;;;;5033023;28;20108;-85
2020/12/26 08:29:26;;;;;;;19.60;11.50;;;3.90;90.50;;;;;;5031172;28;20032;-84
2020/12/26 08:32:30;;;;;;;18.93;11.13;;;3.90;90.50;;;;;;5064818;28;20075;-86
2020/12/26 08:35:19;;;;;;;17.53;10.07;;;3.90;90.30;;;;;;5025188;28;20029;-86
2020/12/26 08:37:50;;;;;;;21.40;10.87;;;3.90;90.20;;;;;;5034853;28;20508;-85
2020/12/26 08:40:17;;;;;;;19.00;10.53;;;4.00;90.30;;;;;;5033001;28;20029;-84
2020/12/26 08:42:43;;;;;;;19.10;9.43;;;4.00;90.30;;;;;;5032052;28;20024;-85
2020/12/26 08:45:28;;;;;;;19.53;9.83;;;4.00;90.10;;;;;;5032815;28;20033;-85
2020/12/26 08:47:58;;;;;;;17.60;9.10;;;3.90;90.20;;;;;;5033676;28;20053;-85
2020/12/26 08:50:24;;;;;;;18.33;9.70;;;4.00;90.00;;;;;;5031676;28;20025;-85
2020/12/26 08:53:03;;;;;;;18.57;8.57;;;4.00;90.10;;;;;;5033501;28;20034;-85
2020/12/26 08:55:32;;;;;;;14.80;8.67;;;3.90;89.40;;;;;;5032090;28;20052;-86
2020/12/26 08:57:59;;;;;;;14.68;8.88;;;4.00;89.30;;;;;;5048205;28;20102;-85
2020/12/26 09:00:26;;;;;;;16.77;8.60;;;3.90;89.30;;;;;;5034974;28;20052;-84
2020/12/26 09:02:55;;;;;;;18.63;9.20;;;4.00;89.50;;;;;;5089961;28;20013;-84
2020/12/26 09:05:24;;;;;;;14.00;8.47;;;4.00;88.90;;;;;;5057023;28;20014;-84
2020/12/26 09:08:07;;;;;;;21.58;8.90;;;4.00;88.30;;;;;;5045637;28;20065;-86
2020/12/26 09:10:35;;;;;;;16.73;9.30;;;3.90;88.60;;;;;;5032463;28;20025;-84
2020/12/26 09:13:05;;;;;;;19.43;9.37;;;3.90;88.90;;;;;;5032701;28;20043;-85
2020/12/26 09:15:54;;;;;;;19.00;10.20;;;3.90;88.80;;;;;;5031743;28;20270;-85
2020/12/26 09:18:28;;;;;;;17.52;9.52;;;4.00;88.90;;;;;;5034728;28;20026;-85
2020/12/26 09:20:57;;;;;;;20.53;9.37;;;4.00;88.80;;;;;;5033388;28;20041;-85
2020/12/26 09:23:24;;;;;;;16.02;8.98;;;4.10;88.80;;;;;;5034069;28;20026;-84
2020/12/26 09:25:51;;;;;;;18.50;8.40;;;4.10;88.50;;;;;;5067164;28;20048;-85
2020/12/26 09:28:17;;;;;;;16.17;8.00;;;4.20;88.40;;;;;;5033810;28;20025;-84
2020/12/26 09:30:49;;;;;;;13.40;7.90;;;4.30;88.10;;;;;;5033653;28;20073;-85
2020/12/26 09:33:14;;;;;;;18.93;7.63;;;4.30;87.50;;;;;;5034816;28;20490;-84
2020/12/26 09:35:40;;;;;;;17.73;7.87;;;4.30;87.30;;;;;;5067607;28;20034;-84
2020/12/26 09:38:06;;;;;;;15.20;7.90;;;4.30;87.10;;;;;;5067130;28;20120;-85
2020/12/26 09:40:33;;;;;;;15.13;8.00;;;4.30;86.70;;;;;;5033479;28;20029;-85
2020/12/26 09:42:59;;;;;;;18.87;8.40;;;4.30;86.80;;;;;;5033410;28;20029;-85
2020/12/26 09:45:25;;;;;;;20.77;9.43;;;4.30;86.80;;;;;;5036033;28;20462;-84
2020/12/26 09:47:51;;;;;;;17.80;9.50;;;4.30;86.40;;;;;;5035878;28;20033;-84
2020/12/26 09:50:17;;;;;;;19.33;8.90;;;4.30;86.30;;;;;;5034137;28;20026;-85
2020/12/26 09:52:43;;;;;;;19.30;9.43;;;4.30;86.10;;;;;;5034313;28;20029;-84
2020/12/26 09:55:12;;;;;;;17.07;8.83;;;4.30;86.40;;;;;;5036464;28;20030;-84
2020/12/26 09:57:38;;;;;;;17.02;9.18;;;4.30;86.50;;;;;;5035002;28;20068;-85
2020/12/26 10:00:08;;;;;;;16.63;8.87;;;4.40;86.40;;;;;;5035162;28;20044;-85
2020/12/26 10:02:34;;;;;;;14.97;8.23;;;4.40;86.10;;;;;;5034502;28;20030;-84
2020/12/26 10:05:04;;;;;;;16.23;8.73;;;4.40;86.00;;;;;;5036135;28;20025;-85
2020/12/26 10:07:31;;;;;;;13.77;7.87;;;4.30;85.60;;;;;;5034470;28;20030;-85
2020/12/26 10:09:56;;;;;;;15.67;8.50;;;4.40;85.90;;;;;;5033781;28;20032;-85
2020/12/26 10:12:22;;;;;;;21.20;8.57;;;4.30;86.00;;;;;;5034280;28;20022;-85
2020/12/26 10:14:47;;;;;;;18.33;8.27;;;4.40;85.60;;;;;;5067445;28;20436;-86
2020/12/26 10:17:14;;;;;;;15.90;8.83;;;4.40;85.60;;;;;;5034356;28;20053;-84
2020/12/26 10:19:39;;;;;;;15.77;7.90;;;4.40;85.50;;;;;;5041583;28;20500;-85
2020/12/26 10:22:05;;;;;;;16.83;7.23;;;4.40;85.40;;;;;;5055425;28;20025;-85
2020/12/26 10:24:31;;;;;;;20.47;9.20;;;4.40;85.80;;;;;;5037722;28;20032;-84
2020/12/26 10:26:56;;;;;;;15.93;8.73;;;4.50;84.60;;;;;;5042549;28;20037;-85
2020/12/26 10:29:22;;;;;;;14.67;7.73;;;4.40;84.50;;;;;;5041307;28;20021;-84
2020/12/26 10:31:47;;;;;;;18.30;8.50;;;4.40;84.30;;;;;;5040913;28;20025;-84
2020/12/26 10:34:13;;;;;;;22.50;8.93;;;4.40;84.70;;;;;;5039312;28;20025;-84
2020/12/26 10:36:43;;;;;;;14.73;7.50;;;4.40;84.50;;;;;;5041066;28;20028;-84
2020/12/26 10:39:11;;;;;;;;;;;4.40;85.10;;;;;;5040412;28;20401;-85
2020/12/26 10:41:42;;;;;;;15.82;7.72;;;4.40;84.60;;;;;;5039826;28;19904;-85
2020/12/26 10:44:08;;;;;;;16.27;7.73;;;4.50;84.30;;;;;;5036929;28;20118;-86
2020/12/26 10:46:33;;;;;;;14.13;7.77;;;4.40;83.90;;;;;;5037275;28;20485;-85
2020/12/26 10:48:59;;;;;;;16.17;7.83;;;4.40;84.00;;;;;;5059900;28;20492;-85
2020/12/26 10:51:24;;;;;;;13.13;7.07;;;4.50;83.90;;;;;;5039039;28;20385;-84
2020/12/26 10:53:50;;;;;;;15.03;7.50;;;4.40;83.70;;;;;;5054718;28;20056;-85
2020/12/26 10:56:16;;;;;;;14.57;7.13;;;4.60;83.70;;;;;;5036744;28;20024;-85
2020/12/26 10:58:41;;;;;;;12.77;6.50;;;4.60;83.60;;;;;;5054548;28;20028;-85
2020/12/26 11:01:07;;;;;;;15.63;6.47;;;4.50;83.10;;;;;;5044851;28;20019;-85
2020/12/26 11:03:33;;;;;;;14.40;6.07;;;4.60;83.00;;;;;;5043202;28;20032;-85
2020/12/26 11:05:59;;;;;;;11.53;5.80;;;4.60;82.30;;;;;;5042785;28;20025;-84
2020/12/26 11:08:26;;;;;;;14.33;6.43;;;4.60;82.40;;;;;;5060908;28;20021;-85
2020/12/26 11:10:51;;;;;;;10.80;6.10;;;4.60;82.40;;;;;;5042167;28;20079;-85
2020/12/26 11:13:17;;;;;;;12.23;5.77;;;4.70;82.40;;;;;;5042659;28;20427;-85
2020/12/26 11:15:43;;;;;;;13.33;5.63;;;4.70;82.20;;;;;;5043164;28;20078;-84
2020/12/26 11:18:08;;;;;;;11.20;5.87;;;4.70;82.80;;;;;;5042812;28;20033;-85
2020/12/26 11:20:34;;;;;;;9.70;4.73;;;4.70;82.60;;;;;;5041458;28;20033;-85
2020/12/26 11:22:59;;;;;;;9.33;4.60;;;4.70;81.10;;;;;;5042274;28;20036;-85
2020/12/26 11:25:25;;;;;;;10.97;4.63;;;4.80;81.50;;;;;;5060080;28;20032;-85
2020/12/26 11:27:51;;;;;;;10.67;4.90;;;4.80;81.00;;;;;;5042040;28;20044;-85
2020/12/26 11:30:17;;;;;;;8.43;4.37;;;4.80;81.00;;;;;;5042028;28;20029;-84
2020/12/26 11:32:43;;;;;;;9.83;4.43;;;4.80;81.30;;;;;;5024493;28;20505;-85
2020/12/26 11:35:08;;;;;;;9.63;4.47;;;4.80;81.30;;;;;;5040799;28;20024;-84
2020/12/26 11:37:34;;;;;;;9.37;4.20;;;4.90;81.20;;;;;;5074510;28;20129;-85
2020/12/26 11:39:59;;;;;;;8.97;4.50;;;4.90;80.60;;;;;;5058708;28;20102;-85
2020/12/26 11:42:25;;;;;;;9.17;3.80;;;5.00;80.80;;;;;;5042033;28;20499;-85
2020/12/26 11:44:52;;;;;;;12.73;4.33;;;5.00;79.70;;;;;;5059755;28;20036;-85
2020/12/26 11:47:17;;;;;;;9.07;3.90;;;5.00;79.60;;;;;;5059675;28;20017;-86
2020/12/26 11:49:43;;;;;;;6.70;4.00;;;5.00;79.90;;;;;;5059891;28;20096;-85
2020/12/26 11:52:08;;;;;;;7.93;3.80;;;5.10;79.00;;;;;;5041435;28;20123;-85
2020/12/26 11:54:34;;;;;;;10.03;4.07;;;5.10;78.10;;;;;;5042636;28;20037;-85
2020/12/26 11:57:00;;;;;;;8.23;3.87;;;5.10;78.90;;;;;;5059182;28;20098;-86
2020/12/26 11:59:25;;;;;;;7.07;2.90;;;5.20;78.80;;;;;;5058525;28;20489;-85
2020/12/26 12:01:54;;;;;;;8.07;3.40;;;5.10;78.40;;;;;;5041191;28;20116;-85
2020/12/26 12:04:22;;;;;;;8.18;3.70;;;5.10;78.60;;;;;;5059033;28;20029;-85
2020/12/26 12:06:48;;;;;;;9.07;3.73;;;5.20;78.30;;;;;;5058489;28;20085;-85
2020/12/26 12:09:14;;;;;;;8.30;3.60;;;5.10;78.50;;;;;;5059018;28;20427;-85
2020/12/26 12:11:40;;;;;;;10.27;3.60;;;5.10;79.10;;;;;;5059805;28;20137;-85
2020/12/26 12:14:05;;;;;;;8.77;3.67;;;5.10;79.10;;;;;;5040129;28;20032;-85
2020/12/26 12:16:31;;;;;;;8.30;3.47;;;5.10;79.20;;;;;;5039409;28;20116;-85
2020/12/26 12:18:57;;;;;;;6.50;2.90;;;5.10;79.40;;;;;;5038321;28;20155;-86
2020/12/26 12:21:22;;;;;;;8.27;3.90;;;5.10;79.40;;;;;;5058462;28;20040;-87
2020/12/26 12:23:48;;;;;;;13.43;3.60;;;5.10;79.40;;;;;;5040551;28;20033;-87
2020/12/26 12:26:22;;;;;;;10.03;3.37;;;5.10;79.40;;;;;;5039952;28;20029;-86
2020/12/26 12:28:48;;;;;;;9.97;4.37;;;5.10;79.30;;;;;;5040202;28;20098;-86
2020/12/26 12:31:14;;;;;;;6.20;3.00;;;5.10;79.30;;;;;;5039036;28;20474;-86
2020/12/26 12:33:39;;;;;;;8.17;3.30;;;5.10;79.30;;;;;;5058452;28;20488;-86
2020/12/26 12:36:05;;;;;;;9.10;3.07;;;5.10;79.30;;;;;;5059199;28;20021;-86
2020/12/26 12:38:31;;;;;;;7.83;3.20;;;5.10;79.70;;;;;;5057705;28;20028;-87
2020/12/26 12:40:56;;;;;;;7.97;2.90;;;5.10;79.70;;;;;;5057143;28;20017;-86
2020/12/26 12:43:22;;;;;;;8.73;3.40;;;5.10;80.00;;;;;;5040076;28;20044;-86
2020/12/26 12:45:47;;;;;;;10.07;3.60;;;5.10;79.80;;;;;;5041182;28;20129;-86
2020/12/26 12:48:13;;;;;;;7.53;3.17;;;5.10;79.90;;;;;;5040447;28;20115;-86
2020/12/26 12:50:38;;;;;;;8.83;2.87;;;5.20;80.30;;;;;;5057305;28;20029;-86